Data for 01/24/2013

Time Sea-Level Adjusted Pressure Absolute Pressure Temperature Relative Humidity Dew Point   
(mb) (inHg) (mb) (inHg) (C) (F) (%) (C) (F)
00:05 1015 29.97 844 24.92 6.2 43.1 28 -11 12.2
00:10 1015 29.97 844 24.92 6.2 43.1 31 -9.6 14.8
00:15 1015 29.97 844 24.92 5.5 41.9 31 -10.5 13.1
00:20 1015 29.97 844 24.92 5.1 41.3 31 -10.5 13.2
00:25 1015 29.97 844 24.92 5.3 41.5 30 -11 12.3
00:30 1015 29.97 844 24.92 5.2 41.4 30 -10.9 12.3
00:35 1015 29.97 844 24.92 5.3 41.6 29 -11.1 12
00:40 1015 29.97 844 24.92 5.5 42 28 -11.4 11.5
00:45 1015 29.97 844 24.92 5.9 42.7 25 -12.5 9.6
00:50 1015 29.97 844 24.92 6.6 43.8 25 -12.3 9.8
00:55 1015 29.97 844 24.92 6.5 43.6 29 -10.3 13.5
01:00 1015 29.97 844 24.92 5.4 41.7 29 -11.4 11.5
01:05 1015 29.97 844 24.92 5.6 42 28 -11.6 11.1
01:10 1015 29.97 844 24.92 5.9 42.7 26 -12.3 9.8
01:15 1015 29.97 844 24.92 6.9 44.5 24 -12.6 9.3
01:20 1015 29.97 844 24.92 6.8 44.3 24 -12.6 9.3
01:25 1015 29.97 844 24.92 6.9 44.3 22 -13.2 8.2
01:30 1015 29.97 844 24.92 7.4 45.2 22 -13.2 8.2
01:35 1015 29.97 844 24.92 7.4 45.3 27 -10.3 13.4
01:40 1015 29.97 844 24.92 5.9 42.6 33 -9 15.7
01:45 1015 29.97 844 24.92 4.8 40.6 34 -9.7 14.5
01:50 1015 29.97 844 24.92 4.6 40.3 34 -9.8 14.3
01:55 1015 29.97 844 24.92 4.5 40.1 33 -10.4 13.3
02:00 1015 29.97 844 24.92 4.8 40.6 36 -9.2 15.5
02:05 1015 29.97 845 24.95 4.5 40.1 38 -8.8 16.2
02:10 1015 29.97 844 24.92 4.5 40 39 -8.4 17
02:15 1015 29.97 844 24.92 4.1 39.4 42 -7.5 18.4
02:20 1015 29.97 844 24.92 3.3 37.9 42 -8.4 16.8
02:25 1015 29.97 844 24.92 3.8 38.8 36 -9.9 14.1
02:30 1015 29.97 844 24.92 4.1 39.4 34 -10.4 13.3
02:35 1015 29.97 844 24.92 4.7 40.4 35 -9.6 14.7
02:40 1015 29.97 844 24.92 4.8 40.7 33 -10.1 13.9
02:45 1015 29.97 844 24.92 5 41 32 -10.3 13.4
02:50 1015 29.97 844 24.92 5.3 41.5 32 -10 14
02:55 1015 29.97 844 24.92 5.2 41.4 32 -10.1 13.8
03:00 1015 29.97 844 24.92 5.4 41.7 32 -10.2 13.7
03:05 1015 29.97 844 24.92 5.4 41.6 34 -9.2 15.5
03:10 1015 29.97 844 24.92 4.6 40.3 39 -8.2 17.2
03:15 1015 29.97 844 24.92 4.1 39.4 36 -9.6 14.7
03:20 1015 29.97 844 24.92 4.6 40.3 33 -10.4 13.3
03:25 1015 29.97 844 24.92 5.3 41.5 34 -9.5 14.9
03:30 1015 29.97 844 24.92 5 41 36 -8.8 16.2
03:35 1015 29.97 844 24.92 4.7 40.5 34 -9.8 14.3
03:40 1015 29.97 844 24.92 4.7 40.4 33 -10.2 13.6
03:45 1015 29.97 844 24.92 5 40.9 32 -10.4 13.2
03:50 1015 29.97 844 24.92 5.3 41.6 32 -10.1 13.8
03:55 1015 29.97 844 24.92 5.1 41.1 34 -9.5 14.9
04:00 1015 29.97 844 24.92 4.5 40.2 35 -9.6 14.8
04:05 1015 29.97 844 24.92 5.3 41.6 30 -10.9 12.4
04:10 1015 29.97 844 24.92 5.9 42.5 30 -10.6 13
04:15 1015 29.97 844 24.92 5.9 42.6 31 -10.1 13.9
04:20 1015 29.97 844 24.92 5.6 42.1 31 -10.4 13.3
04:25 1015 29.97 844 24.92 5.7 42.2 29 -11 12.3
04:30 1015 29.97 844 24.92 5.8 42.4 29 -10.8 12.5
04:35 1015 29.97 844 24.92 5.9 42.6 29 -10.8 12.6
04:40 1015 29.97 844 24.92 5.5 41.9 34 -9.3 15.3
04:45 1015 29.97 844 24.92 4.8 40.6 34 -10 14.1
04:50 1015 29.97 844 24.92 5 41.1 32 -10.4 13.2
04:55 1015 29.97 844 24.92 5.4 41.7 34 -9.2 15.4
05:00 1015 29.97 844 24.92 4.7 40.4 39 -8.1 17.4
05:05 1015 29.97 844 24.92 4.6 40.2 33 -10.4 13.3
05:10 1015 29.97 844 24.92 5.2 41.3 37 -8.2 17.2
05:15 1015 29.97 844 24.92 4.6 40.4 39 -8.1 17.3
05:20 1015 29.97 844 24.92 5 41 30 -11.2 11.9
05:25 1015 29.97 844 24.92 5.2 41.4 38 -8.1 17.5
05:30 1015 29.97 844 24.92 4.9 40.8 38 -8.1 17.4
05:35 1015 29.97 844 24.92 5.1 41.1 36 -8.7 16.3
05:40 1015 29.97 844 24.92 5.1 41.1 32 -10.3 13.4
05:45 1015 29.97 844 24.92 5.8 42.4 31 -10.3 13.5
05:50 1015 29.97 844 24.92 5.9 42.6 30 -10.2 13.6
05:55 1015 29.97 844 24.92 5.9 42.7 30 -10.4 13.3
06:00 1015 29.97 844 24.92 6.1 43 28 -10.9 12.3
06:05 1015 29.97 844 24.92 6.4 43.5 29 -10.5 13.1
06:10 1015 29.97 844 24.92 5.9 42.7 39 -6.9 19.5
06:15 1015 29.97 844 24.92 5 40.9 33 -9.8 14.3
06:20 1015 29.97 845 24.95 5.4 41.7 33 -9.5 14.9
06:25 1015 29.97 845 24.95 5.4 41.7 37 -8.1 17.3
06:30 1015 29.97 845 24.95 5.2 41.4 36 -8.6 16.5
06:35 1015 29.97 845 24.95 5 41.1 43 -6.6 20.1
06:40 1015 29.97 845 24.95 4.3 39.7 44 -6.9 19.5
06:45 1015 29.97 845 24.95 4 39.2 45 -7 19.4
06:50 1015 29.97 845 24.95 4.3 39.8 45 -6.7 20
06:55 1015 29.97 845 24.95 5.5 42 40 -7.2 19.1
07:00 1016 30 845 24.95 6.6 43.8 39 -6.3 20.7
07:05 1016 30 845 24.95 6.6 43.8 41 -5.9 21.4
07:10 1016 30 845 24.95 6.5 43.7 39 -6.4 20.4
07:15 1016 30 845 24.95 6.9 44.4 39 -6.2 20.8
07:20 1016 30 845 24.95 6.8 44.3 39 -6 21.2
07:25 1016 30 845 24.95 6.7 44.1 40 -5.8 21.5
07:30 1016 30 845 24.95 6.7 44 39 -6.3 20.7
07:35 1016 30 845 24.95 6.8 44.2 41 -5.6 21.9
07:40 1016 30 845 24.95 6.6 43.9 42 -5.5 22.1
07:45 1016 30 845 24.95 6.3 43.4 44 -5.1 22.8
07:50 1016 30 845 24.95 6 42.8 45 -5.1 22.9
07:55 1016 30 845 24.95 5.8 42.5 46 -4.9 23.1
08:00 1016 30 845 24.95 5.9 42.6 45 -5.3 22.5
08:05 1016 30 845 24.95 6 42.8 45 -5.1 22.9
08:10 1016 30 845 24.95 5.9 42.6 44 -5.3 22.5
08:15 1016 30 845 24.95 5.9 42.7 45 -5.1 22.8
08:20 1016 30 845 24.95 5.7 42.3 46 -5 23
08:25 1016 30 845 24.95 5.7 42.2 46 -5 23.1
08:30 1016 30 845 24.95 5.7 42.2 46 -5.2 22.7
08:35 1016 30 845 24.95 5.8 42.4 45 -5.3 22.5
08:40 1016 30 845 24.95 5.8 42.5 46 -5 22.9
08:45 1016 30 845 24.95 5.9 42.6 46 -4.8 23.3
08:50 1016 30 845 24.95 5.8 42.5 46 -5 23
08:55 1016 30 845 24.95 6 42.8 45 -5 22.9
09:00 1016 30 845 24.95 6 42.9 46 -4.7 23.5
09:05 1016 30 846 24.98 5.9 42.6 46 -4.8 23.4
09:10 1016 30 846 24.98 5.8 42.4 48 -4.5 23.9
09:15 1016 30 846 24.98 5.6 42 48 -4.6 23.7
09:20 1016 30 846 24.98 5.5 42 47 -4.8 23.4
09:25 1017 30.03 846 24.98 5.6 42.1 47 -4.8 23.3
09:30 1017 30.03 846 24.98 5.7 42.3 46 -5 23
09:35 1017 30.03 846 24.98 5.9 42.6 44 -5.4 22.4
09:40 1017 30.03 846 24.98 6.1 42.9 45 -5 22.9
09:45 1017 30.03 846 24.98 6.2 43.2 43 -5.4 22.3
09:50 1017 30.03 846 24.98 6.3 43.3 45 -4.8 23.3
09:55 1017 30.03 846 24.98 6.1 43 46 -4.8 23.4
10:00 1017 30.03 846 24.98 5.9 42.7 46 -4.7 23.5
10:05 1017 30.03 846 24.98 6.1 42.9 45 -5 22.9
10:10 1017 30.03 846 24.98 6.3 43.3 45 -4.9 23.3
10:15 1017 30.03 846 24.98 6.3 43.4 44 -5 23
10:20 1017 30.03 846 24.98 6.3 43.4 45 -4.8 23.4
10:25 1017 30.03 846 24.98 6.2 43.1 45 -4.8 23.4
10:30 1017 30.03 846 24.98 6.1 43 45 -4.8 23.4
10:35 1017 30.03 846 24.98 6 42.8 45 -5.2 22.7
10:40 1017 30.03 846 24.98 6.1 43 44 -5.2 22.6
10:45 1017 30.03 846 24.98 6.3 43.4 43 -5.3 22.5
10:50 1017 30.03 846 24.98 6.2 43.2 45 -4.9 23.1
10:55 1017 30.03 847 25.01 6.1 43 46 -4.8 23.4
11:00 1017 30.03 847 25.01 6.1 42.9 45 -4.8 23.3
11:05 1017 30.03 846 24.98 6.3 43.3 44 -5.1 22.9
11:10 1017 30.03 846 24.98 6.5 43.7 45 -4.7 23.5
11:15 1017 30.03 846 24.98 6.7 44.1 43 -4.9 23.1
11:20 1017 30.03 846 24.98 6.8 44.3 43 -5 23.1
11:25 1017 30.03 847 25.01 6.8 44.3 43 -4.8 23.3
11:30 1017 30.03 847 25.01 6.9 44.3 43 -4.8 23.4
11:35 1017 30.03 847 25.01 6.7 44 44 -4.7 23.5
11:40 1017 30.03 847 25.01 6.6 43.9 44 -4.8 23.4
11:45 1017 30.03 847 25.01 6.6 43.9 44 -4.7 23.6
11:50 1017 30.03 847 25.01 6.5 43.6 46 -4.4 24.1
11:55 1018 30.06 847 25.01 6.4 43.5 46 -4.5 23.9
12:00 1018 30.06 847 25.01 6.3 43.4 46 -4.5 24
12:05 1018 30.06 847 25.01 6.3 43.4 46 -4.4 24
12:10 1018 30.06 847 25.01 6.5 43.6 46 -4.4 24.1
12:15 1018 30.06 847 25.01 6.6 43.8 45 -4.6 23.8
12:20 1018 30.06 847 25.01 6.6 43.9 44 -4.8 23.4
12:25 1018 30.06 847 25.01 7 44.5 43 -4.7 23.6
12:30 1018 30.06 847 25.01 7.1 44.8 44 -4.3 24.3
12:35 1018 30.06 847 25.01 6.9 44.5 45 -4.2 24.4
12:40 1018 30.06 847 25.01 6.8 44.2 45 -4.4 24
12:45 1018 30.06 847 25.01 6.8 44.2 46 -4.1 24.5
12:50 1018 30.06 847 25.01 6.7 44.1 46 -4.2 24.4
12:55 1018 30.06 847 25.01 6.5 43.7 47 -4.1 24.6
13:00 1018 30.06 847 25.01 6.4 43.5 47 -4 24.7
13:05 1018 30.06 847 25.01 6.4 43.5 46 -4.3 24.3
13:10 1018 30.06 847 25.01 6.6 43.9 46 -4.2 24.4
13:15 1018 30.06 847 25.01 7 44.6 44 -4.4 24.1
13:20 1018 30.06 847 25.01 8 46.3 42 -4.2 24.4
13:25 1018 30.06 848 25.04 7.9 46.2 44 -3.6 25.5
13:30 1018 30.06 848 25.04 7.5 45.4 43 -4.3 24.2
13:35 1018 30.06 848 25.04 7.4 45.3 44 -4.1 24.6
13:40 1018 30.06 847 25.01 7 44.7 44 -4.3 24.2
13:45 1018 30.06 847 25.01 6.9 44.5 44 -4.5 23.8
13:50 1018 30.06 847 25.01 7.1 44.7 44 -4.4 24.1
13:55 1018 30.06 847 25.01 7 44.6 45 -4.1 24.6
14:00 1018 30.06 847 25.01 7.4 45.4 42 -4.6 23.8
14:05 1018 30.06 847 25.01 7.8 46.1 42 -4.2 24.4
14:10 1018 30.06 847 25.01 8.5 47.2 40 -4.3 24.3
14:15 1018 30.06 847 25.01 7.5 45.5 46 -3.3 26.1
14:20 1018 30.06 847 25.01 6.7 44 45 -4.3 24.2
14:25 1018 30.06 847 25.01 6.5 43.7 46 -4.4 24.1
14:30 1018 30.06 847 25.01 6.9 44.4 44 -4.5 24
14:35 1018 30.06 847 25.01 7.1 44.7 45 -4.1 24.6
14:40 1018 30.06 847 25.01 6.8 44.2 45 -4.3 24.3
14:45 1018 30.06 847 25.01 6.9 44.4 44 -4.5 24
14:50 1018 30.06 847 25.01 7.4 45.4 43 -4.3 24.2
14:55 1018 30.06 847 25.01 7.6 45.7 43 -4.3 24.3
15:00 1018 30.06 847 25.01 7.8 46 42 -4.2 24.4
15:05 1018 30.06 847 25.01 7.9 46.3 42 -4.2 24.5
15:10 1018 30.06 847 25.01 8.2 46.7 42 -3.9 25
15:15 1018 30.06 847 25.01 7.6 45.6 42 -4.6 23.8
15:20 1018 30.06 847 25.01 7.5 45.4 41 -4.8 23.4
15:25 1018 30.06 847 25.01 7.6 45.6 41 -4.8 23.3
15:30 1018 30.06 847 25.01 7.9 46.1 41 -4.7 23.6
15:35 1018 30.06 847 25.01 7.9 46.1 41 -4.5 23.8
15:40 1018 30.06 847 25.01 7.7 45.9 40 -4.9 23.1
15:45 1018 30.06 847 25.01 7.9 46.2 40 -5 23
15:50 1018 30.06 847 25.01 8.1 46.6 39 -5 23
15:55 1018 30.06 847 25.01 8.2 46.7 39 -4.9 23.2
16:00 1018 30.06 847 25.01 8.2 46.8 39 -4.9 23.3
16:05 1018 30.06 847 25.01 8.1 46.7 39 -5 23
16:10 1018 30.06 847 25.01 8.1 46.7 39 -5 23
16:15 1018 30.06 847 25.01 8.2 46.8 38 -5.3 22.4
16:20 1018 30.06 847 25.01 8.1 46.6 38 -5.4 22.2
16:25 1018 30.06 847 25.01 8.1 46.6 39 -4.9 23.2
16:30 1018 30.06 847 25.01 8 46.4 39 -5.2 22.7
16:35 1018 30.06 848 25.04 8.1 46.6 38 -5.3 22.4
16:40 1018 30.06 848 25.04 8.1 46.5 39 -5.1 22.8
16:45 1018 30.06 848 25.04 7.9 46.2 42 -4.3 24.2
16:50 1018 30.06 848 25.04 7.2 44.9 44 -4.2 24.4
16:55 1018 30.06 848 25.04 7.1 44.8 43 -4.7 23.5
17:00 1019 30.09 848 25.04 7.5 45.5 41 -4.8 23.4
17:05 1019 30.09 848 25.04 7.7 45.8 42 -4.5 23.9
17:10 1019 30.09 848 25.04 7.3 45.1 42 -4.6 23.7
17:15 1019 30.09 848 25.04 7.1 44.8 42 -5.1 22.9
17:20 1019 30.09 848 25.04 7.3 45.1 42 -4.9 23.1
17:25 1019 30.09 848 25.04 7.2 45 42 -4.8 23.4
17:30 1019 30.09 848 25.04 7.1 44.7 42 -5 23.1
17:35 1019 30.09 848 25.04 6.8 44.3 43 -4.9 23.2
17:40 1019 30.09 848 25.04 6.7 44.1 44 -4.7 23.5
17:45 1019 30.09 848 25.04 6.8 44.2 44 -4.7 23.6
17:50 1019 30.09 848 25.04 6.6 43.9 44 -4.7 23.6
17:55 1019 30.09 848 25.04 6.4 43.5 45 -4.6 23.7
18:00 1019 30.09 848 25.04 5.8 42.4 47 -4.6 23.7
18:05 1019 30.09 848 25.04 5.4 41.7 47 -4.9 23.2
18:10 1019 30.09 848 25.04 5.2 41.4 50 -4.5 24
18:15 1019 30.09 848 25.04 5 41 49 -4.7 23.5
18:20 1019 30.09 848 25.04 4.9 40.8 50 -4.7 23.5
18:25 1019 30.09 848 25.04 4.9 40.8 51 -4.5 23.9
18:30 1019 30.09 848 25.04 4.9 40.8 49 -4.9 23.1
18:35 1019 30.09 848 25.04 4.9 40.9 49 -4.9 23.3
18:40 1019 30.09 848 25.04 4.8 40.7 50 -4.8 23.3
18:45 1019 30.09 849 25.07 4.7 40.5 49 -5 23.1
18:50 1019 30.09 849 25.07 4.6 40.3 50 -4.9 23.2
18:55 1019 30.09 849 25.07 4.5 40.2 50 -4.9 23.2
19:00 1019 30.09 849 25.07 4.5 40 51 -4.8 23.3
19:05 1019 30.09 849 25.07 4.2 39.6 52 -4.6 23.6
19:10 1019 30.09 849 25.07 4.1 39.4 53 -4.6 23.6
19:15 1019 30.09 849 25.07 3.9 39.1 54 -4.6 23.6
19:20 1019 30.09 849 25.07 3.9 38.9 54 -4.6 23.7
19:25 1020 30.12 849 25.07 3.8 38.8 54 -4.6 23.7
19:30 1020 30.12 849 25.07 3.2 37.7 59 -4.1 24.7
19:35 1020 30.12 849 25.07 2.1 35.9 61 -4.6 23.7
19:40 1020 30.12 849 25.07 2.1 35.8 57 -5.6 22
19:45 1020 30.12 849 25.07 3 37.4 56 -5 23
19:50 1020 30.12 849 25.07 3 37.4 55 -5.2 22.6
19:55 1020 30.12 849 25.07 3 37.4 56 -4.9 23.1
20:00 1020 30.12 849 25.07 2.7 36.8 58 -4.7 23.6
20:05 1020 30.12 849 25.07 2.7 36.8 57 -4.9 23.1
20:10 1020 30.12 849 25.07 2.3 36.2 56 -5.6 21.9
20:15 1020 30.12 849 25.07 2.6 36.7 55 -5.6 21.9
20:20 1020 30.12 849 25.07 2.6 36.7 56 -5.2 22.6
20:25 1020 30.12 849 25.07 1.8 35.2 61 -4.9 23.1
20:30 1020 30.12 849 25.07 1.2 34.1 61 -5.5 22.1
20:35 1020 30.12 849 25.07 1.2 34.1 62 -5.4 22.3
20:40 1020 30.12 849 25.07 0.9 33.7 63 -5.3 22.5
20:45 1020 30.12 849 25.07 0.7 33.3 62 -5.7 21.8
20:50 1020 30.12 849 25.07 0.9 33.6 61 -5.8 21.6
20:55 1020 30.12 849 25.07 0.8 33.5 63 -5.5 22.1
21:00 1020 30.12 849 25.07 0.6 33 63 -5.7 21.8
21:05 1020 30.12 849 25.07 0.7 33.2 61 -5.9 21.3
21:10 1020 30.12 849 25.07 0.6 33.1 65 -5.3 22.5
21:15 1020 30.12 849 25.07 0 32.1 63 -6.1 20.9
21:20 1019 30.09 849 25.07 0.4 32.7 62 -6.2 20.9
21:25 1020 30.12 849 25.07 0.5 32.9 60 -6.3 20.7
21:30 1020 30.12 849 25.07 0.6 33 58 -6.8 19.8
21:35 1019 30.09 849 25.07 0.9 33.7 56 -6.8 19.8
21:40 1020 30.12 849 25.07 0.9 33.6 58 -6.6 20.2
21:45 1020 30.12 849 25.07 0.5 33 59 -6.6 20.1
21:50 1020 30.12 849 25.07 0.6 33.1 58 -6.8 19.7
21:55 1019 30.09 849 25.07 0.6 33 59 -6.4 20.4
22:00 1020 30.12 849 25.07 0.4 32.7 58 -6.9 19.6
22:05 1020 30.12 849 25.07 0.6 33 58 -6.7 20
22:10 1020 30.12 849 25.07 0.6 33.1 59 -6.4 20.5
22:15 1020 30.12 849 25.07 0.6 33.1 58 -6.6 20.1
22:20 1020 30.12 849 25.07 0.9 33.6 58 -6.4 20.4
22:25 1020 30.12 849 25.07 0.8 33.4 57 -6.8 19.7
22:30 1020 30.12 849 25.07 0.7 33.2 58 -6.6 20
22:35 1020 30.12 849 25.07 0.4 32.7 59 -6.7 19.9
22:40 1020 30.12 849 25.07 0.8 33.4 58 -6.6 20.1
22:45 1020 30.12 849 25.07 0.9 33.7 57 -6.6 20.1
22:50 1020 30.12 849 25.07 1.3 34.4 56 -6.6 20.1
22:55 1020 30.12 849 25.07 1.2 34.1 56 -6.6 20.2
23:00 1020 30.12 849 25.07 1.5 34.7 55 -6.6 20.1
23:05 1020 30.12 849 25.07 1.5 34.7 57 -6.2 20.8
23:10 1020 30.12 849 25.07 1.5 34.8 56 -6.3 20.6
23:15 1020 30.12 849 25.07 1.3 34.3 57 -6.3 20.6
23:20 1020 30.12 849 25.07 1.4 34.4 57 -6.3 20.7
23:25 1020 30.12 849 25.07 1.6 34.9 57 -6 21.2
23:30 1020 30.12 849 25.07 1.5 34.7 58 -6 21.2
23:35 1020 30.12 849 25.07 1.5 34.6 58 -6 21.2
23:40 1020 30.12 849 25.07 1.3 34.3 60 -5.7 21.7
23:45 1020 30.12 849 25.07 1.1 33.9 60 -5.9 21.4
23:50 1020 30.12 849 25.07 0.9 33.6 61 -5.9 21.4
23:55 1020 30.12 849 25.07 0.6 33.2 61 -6 21.1
24:00 1020 30.12 849 25.07 1.2 34.1 58 -6.1 21